Time;durP1;ratioP1;P1;durP2;ratioP2;P2;SDS_P1;SDS_P2;PMS_P1;PMS_P2;Temp;Humidity;BMP_temperature;BMP_pressure;BME280_temperature;BME280_humidity;BME280_pressure;Samples;Min_cycle;Max_cycle;Signal;HPM_P1;HPM_P2
2022/03/14 00:02:04;;;;;;;48.72;30.40;;;;;;;6.73;93.88;101018.16;4986821;28;20038;-82
2022/03/14 00:04:30;;;;;;;49.45;30.48;;;;;;;6.72;94.42;101018.25;4998647;28;20150;-82
2022/03/14 00:06:55;;;;;;;47.35;30.15;;;;;;;6.66;94.67;101019.41;4984668;28;20034;-80
2022/03/14 00:09:21;;;;;;;46.97;29.42;;;;;;;6.65;94.68;101017.75;4984010;28;20471;-80
2022/03/14 00:11:48;;;;;;;46.97;29.50;;;;;;;6.66;94.99;101019.41;4982861;28;20126;-80
2022/03/14 00:14:14;;;;;;;46.17;30.33;;;;;;;6.58;95.77;101021.63;4991036;28;20066;-81
2022/03/14 00:16:41;;;;;;;48.72;30.17;;;;;;;6.53;96.11;101021.03;5004074;28;20042;-80
2022/03/14 00:19:07;;;;;;;45.75;30.10;;;;;;;6.51;96.65;101020.25;5016411;28;20031;-81
2022/03/14 00:21:39;;;;;;;45.50;30.77;;;;;;;6.50;96.43;101018.56;5014937;28;20030;-81
2022/03/14 00:24:07;;;;;;;47.38;30.02;;;;;;;6.51;96.48;101025.50;5004741;28;20138;-81
2022/03/14 00:26:33;;;;;;;46.88;30.65;;;;;;;6.52;96.53;101016.69;4995753;28;20062;-82
2022/03/14 00:28:59;;;;;;;46.78;29.90;;;;;;;6.53;96.76;101032.38;5026225;28;20102;-82
2022/03/14 00:31:24;;;;;;;46.28;29.48;;;;;;;6.52;96.36;101027.19;4991547;28;20042;-82
2022/03/14 00:33:50;;;;;;;47.65;29.27;;;;;;;6.48;96.99;101028.28;4984244;28;20039;-81
2022/03/14 00:36:16;;;;;;;48.50;30.25;;;;;;;6.48;96.60;101034.34;4984535;28;20053;-81
2022/03/14 00:38:42;;;;;;;48.00;29.88;;;;;;;6.47;97.23;101034.47;4984038;28;20471;-84
2022/03/14 00:41:09;;;;;;;48.97;30.45;;;;;;;6.48;96.81;101036.16;4987542;28;20092;-82
2022/03/14 00:43:35;;;;;;;49.20;30.58;;;;;;;6.48;97.58;101041.41;4983055;28;20042;-82
2022/03/14 00:46:01;;;;;;;48.85;30.88;;;;;;;6.33;98.32;101037.78;4986921;28;20089;-82
2022/03/14 00:48:27;;;;;;;49.15;30.48;;;;;;;6.27;99.13;101042.50;4984655;28;20027;-84
2022/03/14 00:50:54;;;;;;;48.65;30.27;;;;;;;6.21;100.00;101048.06;4985352;28;20468;-84
2022/03/14 00:53:20;;;;;;;48.63;29.80;;;;;;;6.19;99.29;101040.28;5000306;28;20108;-81
2022/03/14 00:55:46;;;;;;;47.25;29.23;;;;;;;6.23;99.50;101051.47;4984758;28;20034;-83
2022/03/14 00:58:12;;;;;;;46.42;29.85;;;;;;;6.24;99.58;101053.16;4986369;28;20053;-81
2022/03/14 01:00:38;;;;;;;48.58;29.77;;;;;;;6.27;98.92;101055.63;4983416;28;20035;-83
2022/03/14 01:03:04;;;;;;;43.10;28.63;;;;;;;6.28;99.14;101059.94;4992609;28;20034;-81
2022/03/14 01:05:30;;;;;;;42.88;29.00;;;;;;;6.26;99.37;101056.53;4983801;28;20042;-82
2022/03/14 01:07:56;;;;;;;52.13;30.02;;;;;;;6.28;99.22;101060.78;4983988;28;20038;-82
2022/03/14 01:10:22;;;;;;;46.45;30.23;;;;;;;6.30;99.22;101058.09;4986472;28;20386;-82
2022/03/14 01:12:48;;;;;;;46.50;29.80;;;;;;;6.26;98.76;101060.00;4984126;28;20435;-80
2022/03/14 01:15:14;;;;;;;46.00;28.85;;;;;;;6.21;99.33;101053.31;4987272;28;20169;-82
2022/03/14 01:17:40;;;;;;;46.30;29.23;;;;;;;6.18;99.35;101060.38;5003875;28;20038;-81
2022/03/14 01:20:08;;;;;;;46.83;29.13;;;;;;;6.12;99.91;101060.72;5003107;28;20078;-82
2022/03/14 01:22:34;;;;;;;44.50;28.67;;;;;;;6.03;100.00;101052.47;4996901;28;20048;-82
2022/03/14 01:25:01;;;;;;;47.20;29.50;;;;;;;6.02;100.00;101059.47;4989043;28;20129;-82
2022/03/14 01:27:27;;;;;;;44.78;29.38;;;;;;;6.00;100.00;101045.63;5000040;28;20042;-81
2022/03/14 01:29:55;;;;;;;52.75;31.17;;;;;;;6.00;100.00;101050.88;4992558;28;20030;-83
2022/03/14 01:32:21;;;;;;;44.53;27.95;;;;;;;6.03;100.00;101045.47;4986886;28;20442;-82
2022/03/14 01:34:46;;;;;;;46.78;27.63;;;;;;;6.05;100.00;101046.25;4984797;28;20088;-83
2022/03/14 01:37:12;;;;;;;40.72;27.55;;;;;;;6.02;100.00;101042.91;5001237;28;20046;-83
2022/03/14 01:39:37;;;;;;;49.42;28.27;;;;;;;6.05;99.76;101048.84;4981673;28;20039;-82
2022/03/14 01:42:03;;;;;;;43.78;27.80;;;;;;;6.09;99.51;101047.75;4985179;28;20066;-82
2022/03/14 01:44:30;;;;;;;45.00;27.95;;;;;;;6.12;99.73;101038.91;4981479;28;20125;-82
2022/03/14 01:46:56;;;;;;;46.85;28.75;;;;;;;6.10;99.88;101052.09;4983482;28;20030;-82
2022/03/14 01:49:22;;;;;;;46.20;28.95;;;;;;;6.05;99.91;101048.84;4983840;28;20403;-82
2022/03/14 01:51:52;;;;;;;43.72;28.08;;;;;;;6.04;100.00;101049.78;4985209;28;20121;-82
2022/03/14 01:54:18;;;;;;;42.53;26.77;;;;;;;6.02;99.94;101038.50;4986530;28;20123;-83
2022/03/14 01:56:44;;;;;;;43.28;27.08;;;;;;;5.98;100.00;101042.22;4985556;28;21177;-81
2022/03/14 01:59:11;;;;;;;43.88;28.40;;;;;;;5.95;100.00;101037.13;4984497;28;20065;-82
2022/03/14 02:01:38;;;;;;;45.53;28.50;;;;;;;5.95;100.00;101039.75;5010983;28;20402;-82
2022/03/14 02:04:04;;;;;;;46.10;28.23;;;;;;;5.94;100.00;101035.47;4981883;28;20088;-82
2022/03/14 02:06:30;;;;;;;43.88;28.42;;;;;;;5.87;100.00;101034.06;5000618;28;20034;-82
2022/03/14 02:08:56;;;;;;;42.88;26.05;;;;;;;5.87;100.00;101039.31;4984783;28;20096;-82
2022/03/14 02:11:21;;;;;;;45.78;27.27;;;;;;;5.81;100.00;101034.34;4984028;28;20039;-81
2022/03/14 02:13:47;;;;;;;42.17;27.35;;;;;;;5.81;100.00;101044.81;4984385;28;20038;-81
2022/03/14 02:16:13;;;;;;;45.88;27.50;;;;;;;5.82;100.00;101040.44;4982186;28;20057;-81
2022/03/14 02:18:38;;;;;;;44.40;27.42;;;;;;;5.82;100.00;101043.91;5000864;28;20375;-82
2022/03/14 02:21:08;;;;;;;44.13;28.15;;;;;;;5.85;100.00;101046.34;4985770;28;20109;-81
2022/03/14 02:23:33;;;;;;;49.75;29.67;;;;;;;5.86;100.00;101042.81;4986167;28;20062;-82
2022/03/14 02:25:59;;;;;;;42.60;28.45;;;;;;;5.90;100.00;101043.53;4985206;28;20033;-82
2022/03/14 02:28:26;;;;;;;46.58;27.92;;;;;;;5.89;100.00;101047.09;4989271;28;20063;-83
2022/03/14 02:30:53;;;;;;;46.45;29.83;;;;;;;5.87;100.00;101043.66;4978703;28;20035;-83
2022/03/14 02:33:19;;;;;;;49.78;30.05;;;;;;;5.81;100.00;101047.44;4982056;28;20085;-82
2022/03/14 02:35:46;;;;;;;46.35;30.33;;;;;;;5.73;100.00;101045.19;4997188;28;20074;-82
2022/03/14 02:38:14;;;;;;;46.55;30.38;;;;;;;5.66;100.00;101051.63;4982090;28;20058;-82
2022/03/14 02:40:46;;;;;;;46.67;29.73;;;;;;;5.60;100.00;101053.72;4981758;28;20034;-82
2022/03/14 02:43:15;;;;;;;47.97;30.38;;;;;;;5.62;100.00;101051.88;4984491;28;20048;-82
2022/03/14 02:45:46;;;;;;;38.53;23.53;;;;;;;5.61;100.00;101053.63;4981796;28;20105;-82
2022/03/14 02:48:13;;;;;;;53.70;31.95;;;;;;;5.60;100.00;101051.09;4988194;28;20034;-82
2022/03/14 02:50:42;;;;;;;53.88;31.95;;;;;;;5.61;100.00;101058.03;5010995;28;20068;-81
2022/03/14 02:53:13;;;;;;;51.15;31.17;;;;;;;5.58;100.00;101068.66;4993248;28;20053;-81
2022/03/14 02:55:39;;;;;;;50.35;31.35;;;;;;;5.52;100.00;101063.72;5006161;28;20039;-82
2022/03/14 02:58:05;;;;;;;50.33;31.33;;;;;;;5.47;100.00;101065.72;4988354;28;20041;-82
2022/03/14 03:00:31;;;;;;;54.97;32.28;;;;;;;5.45;100.00;101072.78;4983401;28;20046;-82
2022/03/14 03:02:57;;;;;;;49.13;30.05;;;;;;;5.45;100.00;101072.78;4978221;28;20050;-82
2022/03/14 03:05:23;;;;;;;45.60;29.85;;;;;;;5.33;100.00;101069.00;4982583;28;20082;-83
2022/03/14 03:07:49;;;;;;;48.50;29.90;;;;;;;5.30;100.00;101074.38;4992504;28;20030;-82
2022/03/14 03:10:23;;;;;;;52.00;31.08;;;;;;;5.33;100.00;101075.06;5001812;28;20085;-82
2022/03/14 03:12:49;;;;;;;49.60;30.70;;;;;;;5.34;100.00;101082.00;5001478;28;20058;-81
2022/03/14 03:15:15;;;;;;;51.85;31.00;;;;;;;5.36;100.00;101085.38;5002820;28;20026;-82
2022/03/14 03:17:42;;;;;;;51.20;30.23;;;;;;;5.39;100.00;101088.78;5006669;28;20042;-83
2022/03/14 03:20:09;;;;;;;52.58;31.02;;;;;;;5.30;100.00;101090.91;4991245;28;20034;-82
2022/03/14 03:22:39;;;;;;;49.75;29.60;;;;;;;5.32;100.00;101094.31;4985928;28;20034;-83
2022/03/14 03:25:08;;;;;;;48.67;29.55;;;;;;;5.38;100.00;101092.31;4985303;28;20096;-81
2022/03/14 03:27:34;;;;;;;51.92;30.48;;;;;;;5.33;100.00;101093.41;4981867;28;20037;-82
2022/03/14 03:30:00;;;;;;;50.38;29.20;;;;;;;5.30;100.00;101101.38;4981420;28;20065;-83
2022/03/14 03:32:25;;;;;;;47.22;30.17;;;;;;;5.31;100.00;101100.47;4997441;28;20495;-82
2022/03/14 03:34:52;;;;;;;48.30;31.08;;;;;;;5.35;100.00;101107.28;4989505;28;20050;-82
2022/03/14 03:37:18;;;;;;;47.47;28.73;;;;;;;5.34;100.00;101102.94;4997983;28;20130;-83
2022/03/14 03:39:44;;;;;;;49.30;29.55;;;;;;;5.31;100.00;101108.31;4992137;28;20031;-82
2022/03/14 03:42:10;;;;;;;49.78;29.45;;;;;;;5.30;100.00;101122.31;4975684;28;20042;-83
2022/03/14 03:44:36;;;;;;;51.65;29.92;;;;;;;5.30;100.00;101121.50;4963228;28;20038;-83
2022/03/14 03:47:03;;;;;;;47.92;29.30;;;;;;;5.31;100.00;101121.41;4981761;28;20059;-83
2022/03/14 03:49:31;;;;;;;51.17;31.63;;;;;;;5.33;100.00;101137.03;4985161;28;20126;-83
2022/03/14 03:51:56;;;;;;;47.78;30.75;;;;;;;5.31;100.00;101129.25;4985421;28;20054;-83
2022/03/14 03:54:22;;;;;;;46.92;28.95;;;;;;;5.31;100.00;101131.88;4985797;28;20128;-83
2022/03/14 03:56:49;;;;;;;48.08;29.90;;;;;;;5.30;100.00;101135.41;4986339;28;20038;-83
2022/03/14 03:59:15;;;;;;;48.20;30.20;;;;;;;5.29;100.00;101135.50;4991002;28;20072;-82
2022/03/14 04:01:43;;;;;;;49.30;30.00;;;;;;;5.31;100.00;101142.34;4983773;28;20039;-84
2022/03/14 04:04:09;;;;;;;48.03;29.30;;;;;;;5.28;100.00;101139.03;4984911;28;20038;-83
2022/03/14 04:06:35;;;;;;;49.30;30.27;;;;;;;5.25;100.00;101145.25;4984743;28;20031;-84
2022/03/14 04:09:01;;;;;;;49.60;30.05;;;;;;;5.28;100.00;101145.13;4987340;28;20049;-84
2022/03/14 04:11:26;;;;;;;46.10;29.63;;;;;;;5.27;100.00;101150.41;4983745;28;20031;-83
2022/03/14 04:13:54;;;;;;;52.17;30.83;;;;;;;5.26;100.00;101162.66;4983595;28;20126;-83
2022/03/14 04:16:21;;;;;;;49.50;30.08;;;;;;;5.29;100.00;101159.06;4985817;28;20030;-83
2022/03/14 04:18:51;;;;;;;49.13;29.73;;;;;;;5.29;100.00;101161.69;5000364;28;20035;-83
2022/03/14 04:21:17;;;;;;;47.15;30.98;;;;;;;5.23;100.00;101161.94;4988272;28;20082;-83
2022/03/14 04:23:42;;;;;;;53.47;31.52;;;;;;;5.19;100.00;101156.00;4987283;28;20030;-82
2022/03/14 04:26:09;;;;;;;47.13;29.55;;;;;;;5.21;100.00;101162.00;4984801;28;20038;-82
2022/03/14 04:28:36;;;;;;;46.17;27.95;;;;;;;5.20;100.00;101167.31;4991955;28;20046;-82
2022/03/14 04:31:06;;;;;;;45.00;28.65;;;;;;;5.19;100.00;101165.59;4996477;28;20041;-83
2022/03/14 04:33:32;;;;;;;51.33;30.93;;;;;;;5.18;100.00;101164.78;5004743;28;20041;-81
2022/03/14 04:35:58;;;;;;;49.50;30.48;;;;;;;5.15;100.00;101175.38;4999250;28;20046;-84
2022/03/14 04:38:28;;;;;;;43.72;29.70;;;;;;;5.15;100.00;101170.13;5005252;28;20035;-83
2022/03/14 04:40:56;;;;;;;48.78;31.20;;;;;;;5.16;100.00;101171.84;4987208;28;20142;-81
2022/03/14 04:43:22;;;;;;;45.38;29.08;;;;;;;5.17;100.00;101173.53;4979047;28;20115;-82
2022/03/14 04:45:49;;;;;;;47.13;29.00;;;;;;;5.22;100.00;101171.56;4978929;28;20115;-81
2022/03/14 04:48:15;;;;;;;50.30;30.88;;;;;;;5.22;100.00;101175.94;4987498;28;20043;-83
2022/03/14 04:50:42;;;;;;;47.72;30.55;;;;;;;5.20;100.00;101178.63;4987458;28;20031;-81
2022/03/14 04:53:08;;;;;;;45.92;29.30;;;;;;;5.19;100.00;101182.16;4981877;28;20446;-81
2022/03/14 04:55:36;;;;;;;46.58;29.38;;;;;;;5.15;100.00;101180.59;4983400;28;20035;-83
2022/03/14 04:58:03;;;;;;;44.78;28.90;;;;;;;5.15;100.00;101180.59;4990005;28;20072;-81
2022/03/14 05:00:31;;;;;;;47.53;29.60;;;;;;;5.19;100.00;101176.94;4982229;28;20420;-82
2022/03/14 05:03:01;;;;;;;47.83;28.95;;;;;;;5.23;100.00;101177.66;4984948;28;20035;-82
2022/03/14 05:05:28;;;;;;;45.47;29.15;;;;;;;5.20;100.00;101178.63;4987139;28;20787;-82
2022/03/14 05:07:55;;;;;;;47.00;29.70;;;;;;;5.19;100.00;101182.16;4988345;28;20037;-81
2022/03/14 05:10:21;;;;;;;45.13;29.02;;;;;;;5.20;100.00;101194.31;4983724;28;20034;-82
2022/03/14 05:12:47;;;;;;;47.30;30.50;;;;;;;5.23;100.00;101196.81;4986747;28;20053;-83
2022/03/14 05:15:17;;;;;;;47.53;29.35;;;;;;;5.21;100.00;101196.03;4988017;28;20039;-83
2022/03/14 05:17:44;;;;;;;48.30;29.70;;;;;;;5.23;100.00;101194.22;4985879;28;20359;-82
2022/03/14 05:20:10;;;;;;;51.00;30.08;;;;;;;5.26;100.00;101199.28;4982687;28;20035;-82
2022/03/14 05:22:48;;;;;;;44.55;28.67;;;;;;;5.26;100.00;101207.13;4985583;28;20037;-83
2022/03/14 05:25:15;;;;;;;46.42;30.30;;;;;;;5.23;100.00;101204.69;4984290;28;20042;-82
2022/03/14 05:27:40;;;;;;;46.63;29.70;;;;;;;5.25;100.00;101213.28;4985025;28;20026;-82
2022/03/14 05:30:08;;;;;;;45.33;29.35;;;;;;;5.29;100.00;101224.50;4986755;28;20038;-82
2022/03/14 05:32:35;;;;;;;53.45;31.23;;;;;;;5.32;100.00;101225.19;4965668;28;20042;-83
2022/03/14 05:35:01;;;;;;;46.83;28.90;;;;;;;5.37;100.00;101230.22;4984752;28;20442;-83
2022/03/14 05:37:26;;;;;;;48.72;30.48;;;;;;;5.33;100.00;101237.38;4983867;28;20122;-83
2022/03/14 05:39:52;;;;;;;47.60;30.23;;;;;;;5.34;100.00;101244.31;4983748;28;20498;-82
2022/03/14 05:42:18;;;;;;;50.53;31.73;;;;;;;5.38;100.00;101244.16;4986231;28;20121;-82
2022/03/14 05:44:44;;;;;;;48.38;30.42;;;;;;;5.43;100.00;101250.03;4985571;28;20065;-83
2022/03/14 05:47:10;;;;;;;48.47;30.38;;;;;;;5.48;100.00;101255.94;4982733;28;20042;-83
2022/03/14 05:49:35;;;;;;;46.58;28.98;;;;;;;5.51;100.00;101255.78;4988823;28;20061;-82
2022/03/14 05:52:01;;;;;;;47.58;29.40;;;;;;;5.53;100.00;101251.34;5003789;28;20038;-82
2022/03/14 05:54:26;;;;;;;47.33;29.77;;;;;;;5.55;100.00;101245.09;4991782;28;20132;-83
2022/03/14 05:56:52;;;;;;;49.75;29.17;;;;;;;5.57;100.00;101252.88;4985556;28;20031;-83
2022/03/14 05:59:18;;;;;;;48.10;29.35;;;;;;;5.57;100.00;101255.50;4989770;28;20130;-83
2022/03/14 06:01:44;;;;;;;42.70;28.17;;;;;;;5.56;100.00;101259.03;4985844;28;20108;-81
2022/03/14 06:04:10;;;;;;;42.55;27.70;;;;;;;5.56;100.00;101264.28;4982010;28;20042;-80
2022/03/14 06:06:36;;;;;;;48.70;28.38;;;;;;;5.58;100.00;101262.44;4984562;28;20045;-81
2022/03/14 06:09:02;;;;;;;47.42;29.48;;;;;;;5.55;100.00;101265.19;4981466;28;20045;-81
2022/03/14 06:11:27;;;;;;;50.70;29.23;;;;;;;5.55;100.00;101270.44;4981935;28;20031;-81
2022/03/14 06:13:53;;;;;;;45.65;29.50;;;;;;;5.53;100.00;101274.91;4980424;28;20038;-82
2022/03/14 06:16:18;;;;;;;47.15;28.80;;;;;;;5.39;100.00;101279.88;4983803;28;20078;-82
2022/03/14 06:18:44;;;;;;;40.90;23.26;;;;;;;5.33;100.00;101281.88;4294093;28;10021406;-82
2022/03/14 06:21:09;;;;;;;47.00;29.27;;;;;;;5.26;100.00;101283.03;4981035;28;20034;-81
2022/03/14 06:23:35;;;;;;;45.20;27.58;;;;;;;5.27;100.00;101281.28;4978886;28;20050;-78
2022/03/14 06:26:01;;;;;;;43.35;26.92;;;;;;;5.32;100.00;101288.00;4981202;28;20026;-81
2022/03/14 06:28:26;;;;;;;42.40;27.48;;;;;;;5.36;100.00;101284.34;4993489;28;20064;-78
2022/03/14 06:30:54;;;;;;;43.42;26.77;;;;;;;5.43;100.00;101294.53;4982082;28;20041;-79
2022/03/14 06:33:19;;;;;;;44.08;28.02;;;;;;;5.50;100.00;101302.06;4980432;28;20043;-80
2022/03/14 06:35:47;;;;;;;45.55;28.40;;;;;;;5.57;100.00;101302.63;4979055;28;20565;-79
2022/03/14 06:38:12;;;;;;;44.17;27.88;;;;;;;5.62;100.00;101306.75;4983544;28;20122;-79
2022/03/14 06:40:40;;;;;;;46.85;27.90;;;;;;;5.68;100.00;101313.47;4980298;28;20039;-78
2022/03/14 06:43:06;;;;;;;43.70;28.50;;;;;;;5.72;100.00;101312.41;4978066;28;20038;-79
2022/03/14 06:45:32;;;;;;;47.17;29.20;;;;;;;5.73;100.00;101319.34;4978612;28;20435;-78
2022/03/14 06:47:58;;;;;;;47.13;28.77;;;;;;;5.77;100.00;101316.53;4980819;28;20065;-81
2022/03/14 06:50:23;;;;;;;47.92;28.67;;;;;;;5.80;100.00;101320.78;5013625;28;20038;-80
2022/03/14 06:52:49;;;;;;;44.80;28.45;;;;;;;5.83;100.00;101325.06;4994547;28;20038;-80
2022/03/14 06:55:15;;;;;;;47.85;27.90;;;;;;;5.83;100.00;101325.91;4998668;28;20066;-79
2022/03/14 06:57:41;;;;;;;40.72;27.23;;;;;;;5.82;100.00;101329.44;4656205;28;10000242;-82
2022/03/14 07:00:11;;;;;;;43.60;28.08;;;;;;;5.59;100.00;101332.25;5021349;28;20041;-81
2022/03/14 07:02:40;;;;;;;45.50;28.73;;;;;;;5.53;100.00;101343.84;4992786;28;20038;-81
2022/03/14 07:05:07;;;;;;;46.42;28.83;;;;;;;5.57;100.00;101339.31;4988901;28;20477;-80
2022/03/14 07:07:32;;;;;;;46.10;28.00;;;;;;;5.58;100.00;101335.78;4981740;28;20061;-81
2022/03/14 07:09:57;;;;;;;48.22;29.85;;;;;;;5.52;100.00;101330.81;4981669;28;20023;-81
2022/03/14 07:12:23;;;;;;;47.95;27.67;;;;;;;5.51;100.00;101334.34;4982974;28;20487;-81
2022/03/14 07:14:49;;;;;;;43.33;28.25;;;;;;;5.47;100.00;101335.41;4984985;28;20379;-81
2022/03/14 07:17:14;;;;;;;48.47;29.23;;;;;;;5.55;100.00;101333.28;4985144;28;20038;-80
2022/03/14 07:19:45;;;;;;;46.83;28.10;;;;;;;5.61;100.00;101327.75;4985504;28;20058;-81
2022/03/14 07:22:17;;;;;;;50.10;29.25;;;;;;;5.61;100.00;101336.47;4981948;28;20039;-81
2022/03/14 07:24:44;;;;;;;46.58;29.13;;;;;;;5.72;100.00;101349.09;4989559;28;20089;-81
2022/03/14 07:27:14;;;;;;;42.93;26.60;;;;;;;5.85;100.00;101358.09;5000474;28;20045;-80
2022/03/14 07:29:39;;;;;;;44.20;28.52;;;;;;;5.91;100.00;101357.84;5006049;28;20031;-79
2022/03/14 07:32:09;;;;;;;44.90;28.52;;;;;;;6.01;100.00;101369.63;5002093;28;20037;-80
2022/03/14 07:34:35;;;;;;;46.03;26.15;;;;;;;6.05;100.00;101379.06;4999800;28;20023;-80
2022/03/14 07:37:00;;;;;;;42.90;27.50;;;;;;;6.08;100.00;101378.91;4994956;28;20392;-80
2022/03/14 07:39:25;;;;;;;43.72;27.80;;;;;;;6.12;100.00;101380.50;4983377;28;20086;-81
2022/03/14 07:41:51;;;;;;;45.25;28.63;;;;;;;6.14;100.00;101383.88;4984342;28;20039;-80
2022/03/14 07:44:17;;;;;;;47.33;28.33;;;;;;;6.13;99.77;101379.53;4988886;28;20121;-79
2022/03/14 07:46:42;;;;;;;47.33;29.25;;;;;;;6.08;100.00;101378.91;4986026;28;20057;-80
2022/03/14 07:49:08;;;;;;;48.10;28.20;;;;;;;6.00;99.75;101385.44;5013646;28;20054;-81
2022/03/14 07:51:34;;;;;;;44.75;27.70;;;;;;;6.06;100.00;101380.75;5002640;28;20050;-80
2022/03/14 07:53:59;;;;;;;46.42;27.45;;;;;;;6.21;100.00;101391.44;5014847;28;20043;-80
2022/03/14 07:56:25;;;;;;;46.45;27.88;;;;;;;6.32;99.30;101392.66;5003267;28;20039;-81
2022/03/14 07:58:50;;;;;;;48.95;28.00;;;;;;;6.43;98.50;101394.78;5012359;28;20014;-80
2022/03/14 08:01:17;;;;;;;44.53;27.70;;;;;;;6.48;97.44;101403.31;4990527;28;20042;-81
2022/03/14 08:03:43;;;;;;;39.58;26.35;;;;;;;6.58;97.04;101404.56;4993280;28;20061;-80
2022/03/14 08:06:11;;;;;;;41.60;27.65;;;;;;;6.63;96.08;101402.56;4987307;28;20039;-81
2022/03/14 08:08:36;;;;;;;42.03;27.08;;;;;;;6.64;95.81;101414.75;4974273;28;20039;-80
2022/03/14 08:11:04;;;;;;;43.33;28.58;;;;;;;6.57;96.12;101408.94;4984949;28;20035;-80
2022/03/14 08:13:30;;;;;;;42.30;26.63;;;;;;;6.59;95.42;101422.00;4982338;28;20059;-82
2022/03/14 08:15:56;;;;;;;41.85;26.70;;;;;;;6.57;95.13;101419.44;4982410;28;20488;-81
2022/03/14 08:18:22;;;;;;;42.42;26.85;;;;;;;6.65;95.58;101423.50;4979437;28;20120;-81
2022/03/14 08:20:50;;;;;;;40.08;26.55;;;;;;;6.78;94.23;101433.31;4984689;28;20399;-81
2022/03/14 08:23:17;;;;;;;44.92;26.88;;;;;;;6.91;93.68;101423.94;4979506;28;20448;-81
2022/03/14 08:25:42;;;;;;;43.97;26.20;;;;;;;7.06;92.33;101443.34;4983880;28;20435;-81
2022/03/14 08:28:08;;;;;;;43.60;26.55;;;;;;;7.15;90.72;101447.28;4986780;28;20027;-81
2022/03/14 08:30:34;;;;;;;42.15;26.85;;;;;;;7.01;90.72;101444.50;4989570;28;20018;-81
2022/03/14 08:33:01;;;;;;;38.33;25.65;;;;;;;6.94;90.63;101429.03;4992902;28;20038;-79
2022/03/14 08:35:28;;;;;;;39.78;25.48;;;;;;;6.99;90.40;101432.28;5003208;28;20039;-80
2022/03/14 08:37:55;;;;;;;40.67;26.48;;;;;;;7.14;90.21;101424.56;5004050;28;20113;-80
2022/03/14 08:40:23;;;;;;;39.08;26.20;;;;;;;7.33;89.05;101420.13;4994698;28;20171;-81
2022/03/14 08:42:51;;;;;;;37.25;24.85;;;;;;;7.46;88.02;101426.47;4980465;28;20062;-81
2022/03/14 08:45:17;;;;;;;40.75;27.02;;;;;;;7.58;87.61;101428.47;4980400;28;20062;-80
2022/03/14 08:47:43;;;;;;;40.90;25.98;;;;;;;7.68;84.71;101429.69;4983777;28;20054;-82
2022/03/14 08:50:10;;;;;;;43.88;26.92;;;;;;;7.65;84.90;101427.22;4988610;28;20034;-82
2022/03/14 08:52:37;;;;;;;41.95;26.15;;;;;;;7.70;84.98;101430.47;4988041;28;20038;-81
2022/03/14 08:55:03;;;;;;;44.05;26.63;;;;;;;7.83;85.15;101434.13;4987362;28;20049;-80
2022/03/14 08:57:29;;;;;;;40.58;26.10;;;;;;;7.97;84.17;101433.44;4990112;28;20035;-80
2022/03/14 08:59:54;;;;;;;39.67;25.55;;;;;;;8.16;83.53;101438.56;4989003;28;20467;-83
2022/03/14 09:02:20;;;;;;;36.92;24.13;;;;;;;8.27;81.89;101445.88;4998600;28;20383;-78
2022/03/14 09:04:46;;;;;;;36.92;24.80;;;;;;;8.32;80.84;101450.00;4982570;28;20157;-77
2022/03/14 09:07:24;;;;;;;36.58;24.60;;;;;;;8.32;79.06;101455.25;4987145;28;20545;-78
2022/03/14 09:09:49;;;;;;;34.28;22.90;;;;;;;8.30;78.74;101446.63;4983651;28;20042;-79
2022/03/14 09:12:15;;;;;;;37.30;24.50;;;;;;;8.34;76.71;101458.66;4985275;28;20100;-79
2022/03/14 09:14:40;;;;;;;36.85;24.02;;;;;;;8.29;78.09;101455.41;4979373;28;20038;-78
2022/03/14 09:17:06;;;;;;;37.17;24.33;;;;;;;8.25;79.03;101453.84;4981666;28;20120;-79
2022/03/14 09:19:32;;;;;;;38.15;23.23;;;;;;;8.19;78.34;101460.28;4985909;28;20109;-80
2022/03/14 09:21:58;;;;;;;36.80;24.15;;;;;;;8.28;77.82;101448.44;4983854;28;20035;-79
2022/03/14 09:24:26;;;;;;;37.10;23.40;;;;;;;8.41;77.60;101453.94;4979309;28;20226;-79
2022/03/14 09:26:55;;;;;;;35.00;24.10;;;;;;;8.56;76.71;101459.19;4980822;28;20096;-80
2022/03/14 09:29:21;;;;;;;35.97;22.55;;;;;;;8.67;75.87;101453.34;4983471;28;20502;-79
2022/03/14 09:31:47;;;;;;;31.67;23.05;;;;;;;8.80;74.76;101445.63;4981083;28;20038;-79
2022/03/14 09:34:12;;;;;;;36.83;24.00;;;;;;;8.89;73.70;101450.38;4982940;28;20121;-80
2022/03/14 09:36:38;;;;;;;34.10;21.75;;;;;;;8.97;72.14;101453.41;4980991;28;20069;-79
2022/03/14 09:39:04;;;;;;;25.73;19.10;;;;;;;9.05;68.58;101456.47;4993941;28;20130;-79
2022/03/14 09:41:32;;;;;;;28.45;20.00;;;;;;;9.13;67.79;101448.97;4981406;28;20096;-80
2022/03/14 09:43:59;;;;;;;34.25;23.00;;;;;;;9.17;68.96;101447.03;4982941;28;20467;-81
2022/03/14 09:46:28;;;;;;;36.20;24.05;;;;;;;9.18;70.61;101451.38;4981732;28;20106;-81
2022/03/14 09:48:57;;;;;;;34.38;22.85;;;;;;;9.23;70.82;101455.44;4982262;28;20070;-81
2022/03/14 09:51:23;;;;;;;33.58;23.35;;;;;;;9.21;69.69;101448.53;4988606;28;20160;-82
2022/03/14 09:53:49;;;;;;;34.83;23.75;;;;;;;9.33;69.95;101451.31;4985750;28;20115;-80
2022/03/14 09:56:15;;;;;;;29.70;21.67;;;;;;;9.32;69.17;101457.53;4980223;28;20034;-80
2022/03/14 09:58:44;;;;;;;32.70;22.50;;;;;;;9.44;68.42;101454.19;4981097;28;20031;-79
2022/03/14 10:01:10;;;;;;;31.70;22.45;;;;;;;9.44;67.91;101454.19;4979905;28;20455;-77
2022/03/14 10:03:37;;;;;;;32.20;22.80;;;;;;;9.53;67.42;101446.69;4984036;28;20030;-79
2022/03/14 10:06:03;;;;;;;32.15;22.23;;;;;;;9.65;67.80;101445.97;4985083;28;20035;-79
2022/03/14 10:08:28;;;;;;;32.25;22.55;;;;;;;9.63;66.09;101443.41;5000592;28;20058;-78
2022/03/14 10:10:54;;;;;;;31.02;22.00;;;;;;;9.48;66.98;101436.41;4984286;28;20425;-78
2022/03/14 10:13:19;;;;;;;30.60;22.25;;;;;;;9.56;67.68;101431.53;4983357;28;20107;-76
2022/03/14 10:15:45;;;;;;;32.50;23.13;;;;;;;9.66;67.17;101421.31;4990325;28;20428;-77
2022/03/14 10:18:16;;;;;;;31.08;22.20;;;;;;;9.70;66.67;101422.81;4995627;28;20134;-78
2022/03/14 10:21:08;;;;;;;32.13;21.60;;;;;;;9.70;66.29;101422.81;4978820;28;20082;-76
2022/03/14 10:23:44;;;;;;;31.77;22.35;;;;;;;9.81;65.68;101412.47;4979852;28;20100;-76
2022/03/14 10:26:16;;;;;;;30.98;21.95;;;;;;;9.90;65.32;101419.81;4994527;28;20144;-78
2022/03/14 10:28:48;;;;;;;32.55;22.70;;;;;;;9.89;64.69;101418.13;4988584;28;20368;-77
2022/03/14 10:31:14;;;;;;;29.33;21.63;;;;;;;9.86;65.62;101413.88;4999920;28;20035;-76
2022/03/14 10:33:39;;;;;;;32.90;23.15;;;;;;;9.95;64.85;101412.47;4999596;28;20463;-77
2022/03/14 10:36:06;;;;;;;29.40;22.10;;;;;;;10.06;65.07;101407.41;5000080;28;20121;-79
2022/03/14 10:38:42;;;;;;;32.28;23.00;;;;;;;10.14;63.96;101407.75;4981247;28;20061;-78
2022/03/14 10:41:17;;;;;;;28.95;21.58;;;;;;;10.18;63.35;101409.31;4980428;28;20109;-77
2022/03/14 10:43:42;;;;;;;29.05;21.08;;;;;;;10.22;62.55;101397.63;4978037;28;20026;-78
2022/03/14 10:46:08;;;;;;;28.80;20.00;;;;;;;10.34;62.27;101403.91;4980268;28;20043;-79
2022/03/14 10:48:43;;;;;;;27.70;20.48;;;;;;;10.37;61.28;101397.59;4983067;28;20030;-77
2022/03/14 10:51:18;;;;;;;30.33;20.77;;;;;;;10.42;61.25;101403.44;4637700;28;10000550;-80
2022/03/14 10:53:47;;;;;;;28.02;19.95;;;;;;;10.57;60.91;101402.44;4632078;28;10000055;-77
2022/03/14 10:56:15;;;;;;;27.58;20.35;;;;;;;10.69;60.31;101404.31;4982617;28;20026;-78
2022/03/14 10:58:40;;;;;;;27.90;21.23;;;;;;;10.76;60.35;101400.34;4979162;28;20041;-79
2022/03/14 11:01:07;;;;;;;29.00;19.88;;;;;;;10.75;60.73;101401.28;4980791;28;20030;-78
2022/03/14 11:03:41;;;;;;;26.38;20.08;;;;;;;10.73;59.83;101395.22;4980695;28;20057;-78
2022/03/14 11:06:13;;;;;;;27.58;20.30;;;;;;;10.79;59.83;101397.47;4979923;28;20038;-77
2022/03/14 11:08:45;;;;;;;29.10;20.83;;;;;;;10.89;59.93;101388.03;4983223;28;20038;-77
2022/03/14 11:11:14;;;;;;;25.80;19.80;;;;;;;10.86;58.78;101395.28;4995463;28;20041;-77